Time;durP1;ratioP1;P1;durP2;ratioP2;P2;SDS_P1;SDS_P2;PMS_P1;PMS_P2;Temp;Humidity;BMP_temperature;BMP_pressure;BME280_temperature;BME280_humidity;BME280_pressure;Samples;Min_cycle;Max_cycle;Signal;HPM_P1;HPM_P2
2022/04/13 00:00:11;;;;;;;15.57;8.15;;;;;;;1.07;73.71;93680.28;5047925;28;20078;-37
2022/04/13 00:02:37;;;;;;;13.18;8.55;;;;;;;1.15;73.81;93694.94;5047896;28;20033;-38
2022/04/13 00:05:03;;;;;;;13.75;7.85;;;;;;;1.09;73.92;93701.53;5048212;28;20040;-38
2022/04/13 00:07:29;;;;;;;17.20;10.40;;;;;;;0.93;74.23;93694.00;5048230;28;20082;-37
2022/04/13 00:09:54;;;;;;;22.42;14.88;;;;;;;1.01;73.63;93703.97;5048172;28;20017;-37
2022/04/13 00:12:19;;;;;;;22.48;14.20;;;;;;;0.99;74.38;93694.78;5047794;28;20058;-38
2022/04/13 00:14:45;;;;;;;24.33;13.50;;;;;;;1.00;74.29;93696.25;5047506;27;20074;-37
2022/04/13 00:17:10;;;;;;;23.70;13.48;;;;;;;1.00;74.58;93688.88;5047825;28;20029;-38
2022/04/13 00:19:36;;;;;;;21.25;12.90;;;;;;;1.04;74.38;93692.09;5047668;28;20017;-37
2022/04/13 00:22:01;;;;;;;25.13;13.27;;;;;;;0.95;74.40;93686.84;5048021;28;20081;-37
2022/04/13 00:24:27;;;;;;;18.58;11.27;;;;;;;0.94;74.82;93692.75;5047784;28;20514;-37
2022/04/13 00:26:52;;;;;;;19.75;11.60;;;;;;;1.02;74.43;93682.97;5047627;28;20395;-37
2022/04/13 00:29:18;;;;;;;15.25;10.45;;;;;;;0.85;74.52;93685.50;5047883;28;20021;-38
2022/04/13 00:31:44;;;;;;;18.67;10.55;;;;;;;0.83;74.99;93677.09;5047782;28;20024;-37
2022/04/13 00:34:09;;;;;;;14.77;8.77;;;;;;;0.95;75.65;93688.81;5047797;28;20071;-37
2022/04/13 00:36:35;;;;;;;11.75;7.68;;;;;;;0.92;74.38;93687.81;5047416;28;20032;-38
2022/04/13 00:39:01;;;;;;;12.93;7.13;;;;;;;0.92;73.79;93685.09;5047720;28;20082;-37
2022/04/13 00:41:26;;;;;;;17.52;8.20;;;;;;;0.90;73.79;93682.13;5047688;28;20029;-37
2022/04/13 00:44:05;;;;;;;13.32;7.93;;;;;;;0.99;73.76;93681.94;5047317;28;20501;-37
2022/04/13 00:46:31;;;;;;;16.05;10.60;;;;;;;1.13;73.48;93680.31;5047696;28;20413;-37
2022/04/13 00:48:58;;;;;;;17.98;11.07;;;;;;;1.09;73.87;93687.94;5047538;28;20024;-38
2022/04/13 00:51:23;;;;;;;10.35;6.43;;;;;;;1.06;73.29;93683.50;5047298;28;20719;-38
2022/04/13 00:53:51;;;;;;;13.43;6.65;;;;;;;0.78;73.81;93681.25;5047435;28;20013;-37
2022/04/13 00:56:23;;;;;;;13.27;4.95;;;;;;;0.80;74.28;93686.22;5047204;28;20560;-38
2022/04/13 00:58:52;;;;;;;7.63;5.10;;;;;;;0.57;74.32;93668.19;5046076;28;20036;-38
2022/04/13 01:01:17;;;;;;;15.98;9.57;;;;;;;0.78;73.75;93683.97;5110606;27;20053;-38
2022/04/13 01:03:43;;;;;;;30.17;14.70;;;;;;;0.69;74.17;93678.69;5151696;27;20144;-38
2022/04/13 01:06:09;;;;;;;19.25;11.70;;;;;;;0.69;74.92;93669.81;5150587;27;20027;-37
2022/04/13 01:08:37;;;;;;;20.65;8.20;;;;;;;0.65;74.75;93674.72;5152945;27;20025;-38
2022/04/13 01:11:02;;;;;;;13.15;9.07;;;;;;;0.51;74.65;93667.41;5155196;27;20042;-38
2022/04/13 01:13:28;;;;;;;16.85;9.55;;;;;;;0.43;75.25;93671.78;5129618;27;20473;-38
2022/04/13 01:15:53;;;;;;;11.23;7.35;;;;;;;0.47;75.21;93675.03;5050864;28;20021;-38
2022/04/13 01:18:19;;;;;;;10.88;5.65;;;;;;;0.52;74.81;93679.78;5050561;28;20409;-38
2022/04/13 01:20:52;;;;;;;10.77;6.78;;;;;;;0.57;74.18;93682.53;5050635;28;20032;-38
2022/04/13 01:23:20;;;;;;;7.22;5.35;;;;;;;0.65;73.97;93675.44;5050711;28;20084;-38
2022/04/13 01:25:52;;;;;;;12.15;6.25;;;;;;;0.51;74.01;93676.31;5050677;28;20465;-38
2022/04/13 01:28:18;;;;;;;25.25;14.90;;;;;;;0.64;74.58;93682.13;5050670;28;20073;-38
2022/04/13 01:30:44;;;;;;;28.42;17.05;;;;;;;0.62;74.21;93681.09;5049109;28;20447;-38
2022/04/13 01:33:10;;;;;;;20.75;12.30;;;;;;;0.60;74.13;93681.59;5050285;28;20045;-38
2022/04/13 01:35:35;;;;;;;28.80;15.38;;;;;;;0.61;73.80;93672.19;5050547;28;20512;-38
2022/04/13 01:38:00;;;;;;;15.70;10.32;;;;;;;0.68;72.88;93676.47;5050525;28;20025;-38
2022/04/13 01:40:26;;;;;;;18.25;10.68;;;;;;;0.45;73.11;93651.06;5050197;28;20387;-38
2022/04/13 01:42:51;;;;;;;22.73;12.35;;;;;;;0.65;73.56;93672.00;5050491;28;20021;-38
2022/04/13 01:45:20;;;;;;;17.30;10.82;;;;;;;0.56;73.38;93645.72;5050474;28;20024;-38
2022/04/13 01:47:47;;;;;;;22.13;11.25;;;;;;;0.57;73.34;93665.47;5050016;28;20024;-38
2022/04/13 01:50:13;;;;;;;20.75;11.05;;;;;;;0.31;73.67;93670.91;5050087;28;20529;-38
2022/04/13 01:52:38;;;;;;;14.07;8.55;;;;;;;0.40;74.22;93667.28;5049928;28;20101;-38
2022/04/13 01:55:04;;;;;;;11.50;7.95;;;;;;;0.31;74.01;93645.69;5049983;28;20029;-38
2022/04/13 01:57:29;;;;;;;18.20;8.93;;;;;;;0.00;74.86;93662.66;5050266;28;20070;-38
2022/04/13 01:59:55;;;;;;;14.88;9.10;;;;;;;0.24;74.43;93652.31;5049831;28;20052;-38
2022/04/13 02:02:20;;;;;;;13.43;8.88;;;;;;;0.20;74.28;93648.28;5049789;28;20518;-38
2022/04/13 02:04:48;;;;;;;12.30;8.05;;;;;;;-0.06;74.36;93627.28;5049869;28;20033;-38
2022/04/13 02:07:13;;;;;;;13.05;7.75;;;;;;;0.22;74.35;93654.75;5050085;28;20021;-38
2022/04/13 02:09:39;;;;;;;9.93;6.55;;;;;;;0.17;74.86;93660.13;5049825;28;20078;-38
2022/04/13 02:12:05;;;;;;;10.23;6.25;;;;;;;-0.03;74.81;93645.34;5049894;28;20039;-38
2022/04/13 02:14:30;;;;;;;8.48;6.22;;;;;;;0.15;74.82;93659.84;5049745;27;20062;-38
2022/04/13 02:16:55;;;;;;;9.60;6.30;;;;;;;0.16;74.13;93662.09;5049709;28;20025;-38
2022/04/13 02:19:21;;;;;;;15.65;7.90;;;;;;;0.12;74.09;93658.09;5049942;28;20021;-38
2022/04/13 02:21:46;;;;;;;17.70;9.38;;;;;;;0.08;74.50;93652.88;5049172;28;20074;-38
2022/04/13 02:24:12;;;;;;;9.18;6.22;;;;;;;-0.36;74.65;93593.41;5049526;28;20409;-38
2022/04/13 02:26:37;;;;;;;17.23;8.20;;;;;;;0.16;73.76;93650.47;5049821;28;20021;-38
2022/04/13 02:29:03;;;;;;;11.25;7.40;;;;;;;-0.33;74.33;93589.75;5049712;28;20073;-38
2022/04/13 02:31:28;;;;;;;11.57;6.80;;;;;;;-0.09;74.18;93646.50;5049388;28;20481;-38
2022/04/13 02:33:56;;;;;;;4.93;2.70;;;;;;;-0.23;74.28;93648.06;5049322;28;20052;-38
2022/04/13 02:36:21;;;;;;;6.32;4.55;;;;;;;-0.16;74.12;93647.66;5049343;28;20033;-38
2022/04/13 02:38:47;;;;;;;6.85;4.93;;;;;;;-0.12;74.31;93640.06;5049612;28;20045;-38
2022/04/13 02:41:12;;;;;;;7.55;5.10;;;;;;;-0.18;74.62;93646.63;5049235;28;20021;-38
2022/04/13 02:43:39;;;;;;;6.78;5.30;;;;;;;-0.29;74.62;93655.38;5049188;28;20103;-38
2022/04/13 02:46:04;;;;;;;7.65;4.45;;;;;;;-0.29;74.67;93647.25;5049459;28;20047;-38
2022/04/13 02:48:30;;;;;;;6.25;4.57;;;;;;;-0.39;74.90;93640.44;5049453;28;20025;-38
2022/04/13 02:50:56;;;;;;;4.72;2.80;;;;;;;-0.41;75.14;93645.59;5049390;28;20014;-38
2022/04/13 02:53:23;;;;;;;3.20;2.35;;;;;;;-0.35;73.72;93635.59;5049324;28;20024;-38
2022/04/13 02:55:50;;;;;;;6.32;2.72;;;;;;;-0.21;73.99;93644.88;5049274;28;20057;-38
2022/04/13 02:58:15;;;;;;;4.70;3.20;;;;;;;-0.17;73.64;93645.41;5049267;28;20032;-38
2022/04/13 03:00:41;;;;;;;3.38;2.40;;;;;;;-0.40;73.99;93641.69;5049238;28;20021;-38
2022/04/13 03:03:06;;;;;;;8.05;4.10;;;;;;;-0.48;74.68;93642.53;5048717;28;20514;-37
2022/04/13 03:05:32;;;;;;;5.38;3.63;;;;;;;-0.37;74.61;93646.13;5049215;28;20029;-38
2022/04/13 03:07:57;;;;;;;5.82;3.45;;;;;;;-0.46;74.61;93653.66;5048787;28;20029;-38
2022/04/13 03:10:22;;;;;;;9.90;5.70;;;;;;;-0.40;74.70;93649.06;5048858;28;20025;-38
2022/04/13 03:12:48;;;;;;;7.60;6.00;;;;;;;-0.50;74.71;93653.88;5048653;28;20029;-38
2022/04/13 03:15:14;;;;;;;7.55;5.45;;;;;;;-0.47;75.28;93654.88;5048358;27;20562;-37
2022/04/13 03:17:40;;;;;;;7.38;5.88;;;;;;;-0.76;76.45;93656.44;5048980;28;20041;-38
2022/04/13 03:20:06;;;;;;;10.02;5.47;;;;;;;-0.48;75.50;93662.28;5048660;28;20057;-37
2022/04/13 03:22:31;;;;;;;6.82;5.38;;;;;;;-0.47;75.32;93661.06;5048953;28;20025;-37
2022/04/13 03:25:00;;;;;;;9.32;5.75;;;;;;;-0.64;76.00;93651.94;5048822;28;20478;-38
2022/04/13 03:27:25;;;;;;;13.00;8.27;;;;;;;-0.71;75.70;93652.31;5048537;28;20421;-37
2022/04/13 03:29:51;;;;;;;17.92;9.52;;;;;;;-0.85;76.24;93653.13;5048539;28;20037;-38
2022/04/13 03:32:16;;;;;;;14.18;9.35;;;;;;;-0.92;76.81;93648.06;5047160;28;20040;-37
2022/04/13 03:34:41;;;;;;;10.65;8.13;;;;;;;-0.88;76.79;93651.34;5048725;28;20032;-38
2022/04/13 03:37:07;;;;;;;15.02;8.07;;;;;;;-0.75;76.26;93654.50;5048577;28;20059;-38
2022/04/13 03:39:32;;;;;;;9.00;6.85;;;;;;;-0.83;76.04;93656.09;5048729;28;20029;-37
2022/04/13 03:41:58;;;;;;;10.02;5.68;;;;;;;-0.93;76.72;93658.16;5048261;28;20021;-37
2022/04/13 03:44:23;;;;;;;8.95;4.97;;;;;;;-0.86;76.35;93665.16;5048600;28;20024;-38
2022/04/13 03:46:50;;;;;;;7.80;4.53;;;;;;;-1.03;76.30;93664.16;5047052;28;20064;-37
2022/04/13 03:49:15;;;;;;;6.65;3.90;;;;;;;-0.97;75.87;93670.41;5048179;28;20516;-37
2022/04/13 03:51:41;;;;;;;13.68;8.10;;;;;;;-1.01;76.09;93672.56;5048505;28;20028;-37
2022/04/13 03:54:07;;;;;;;11.30;6.20;;;;;;;-0.94;75.98;93680.31;5042632;28;20075;-37
2022/04/13 03:56:33;;;;;;;22.45;14.23;;;;;;;-0.86;75.84;93679.47;5028273;28;20029;-37
2022/04/13 03:59:03;;;;;;;26.98;14.30;;;;;;;-0.95;75.10;93686.94;5028192;28;20520;-37
2022/04/13 04:01:28;;;;;;;15.73;9.63;;;;;;;-1.15;75.72;93667.91;5112361;27;20031;-38
2022/04/13 04:03:54;;;;;;;16.30;9.98;;;;;;;-0.92;75.47;93684.06;5152663;27;20126;-37
2022/04/13 04:06:20;;;;;;;16.15;9.95;;;;;;;-0.99;75.30;93687.16;5152659;27;20026;-38
2022/04/13 04:08:45;;;;;;;20.55;11.35;;;;;;;-0.79;75.02;93686.47;5152933;27;20033;-37
2022/04/13 04:11:11;;;;;;;16.92;10.95;;;;;;;-1.02;75.82;93666.41;5065281;27;20033;-38
2022/04/13 04:13:36;;;;;;;15.80;9.80;;;;;;;-0.69;75.09;93695.97;5047383;27;20478;-37
2022/04/13 04:16:02;;;;;;;17.67;10.43;;;;;;;-0.68;75.17;93694.78;5047808;28;20025;-38
2022/04/13 04:18:28;;;;;;;15.30;10.48;;;;;;;-0.80;75.11;93696.56;5048040;28;20043;-37
2022/04/13 04:20:53;;;;;;;16.92;10.05;;;;;;;-0.86;75.56;93700.41;5047768;28;20040;-37
2022/04/13 04:23:19;;;;;;;17.58;11.13;;;;;;;-0.95;75.52;93687.69;5047722;28;20028;-37
2022/04/13 04:25:45;;;;;;;20.85;12.13;;;;;;;-0.68;75.49;93708.31;5047636;28;20088;-38
2022/04/13 04:28:10;;;;;;;13.82;10.05;;;;;;;-0.85;75.80;93707.31;5047958;28;20037;-38
2022/04/13 04:30:40;;;;;;;13.50;8.48;;;;;;;-0.71;75.72;93711.97;5047908;28;20037;-38
2022/04/13 04:33:05;;;;;;;11.02;7.72;;;;;;;-0.60;75.84;93719.53;5047428;28;20115;-38
2022/04/13 04:35:32;;;;;;;8.75;6.07;;;;;;;-0.55;75.09;93721.56;5047829;28;20037;-38
2022/04/13 04:37:58;;;;;;;11.52;7.68;;;;;;;-0.75;75.02;93695.16;5047715;28;20028;-38
2022/04/13 04:40:23;;;;;;;14.55;8.35;;;;;;;-0.35;74.83;93721.63;5047546;28;20504;-38
2022/04/13 04:42:49;;;;;;;11.57;6.78;;;;;;;-0.30;74.61;93723.66;5047317;28;20032;-38
2022/04/13 04:45:22;;;;;;;70.97;26.92;;;;;;;-0.21;74.05;93727.00;5047323;28;20025;-38
2022/04/13 04:47:49;;;;;;;25.02;11.02;;;;;;;-0.07;73.95;93737.09;5047562;28;20047;-38
2022/04/13 04:50:15;;;;;;;22.48;12.50;;;;;;;0.04;72.92;93703.91;5047540;28;20175;-38
2022/04/13 04:52:41;;;;;;;34.63;16.25;;;;;;;0.41;72.88;93739.41;5047548;28;20459;-39
2022/04/13 04:55:09;;;;;;;53.70;26.95;;;;;;;0.57;72.24;93734.16;5047173;28;20541;-38
2022/04/13 04:57:34;;;;;;;44.55;22.75;;;;;;;0.75;71.95;93739.28;5047544;28;20044;-38
2022/04/13 05:00:00;;;;;;;47.35;22.65;;;;;;;0.95;71.91;93737.75;5054210;27;20052;-38
2022/04/13 05:02:25;;;;;;;52.25;22.38;;;;;;;0.88;71.81;93736.22;5151849;27;20054;-38
2022/04/13 05:04:52;;;;;;;38.38;21.98;;;;;;;0.91;72.51;93740.66;5151843;27;20058;-38
2022/04/13 05:07:17;;;;;;;21.75;15.13;;;;;;;0.92;72.86;93736.75;5070693;27;20042;-38
2022/04/13 05:09:43;;;;;;;10.32;8.02;;;;;;;1.02;73.11;93745.50;5047443;28;20032;-39
2022/04/13 05:12:08;;;;;;;11.55;7.78;;;;;;;1.15;72.05;93746.59;5047003;28;20028;-39
2022/04/13 05:14:34;;;;;;;9.48;7.40;;;;;;;1.19;71.97;93751.84;5046967;27;20025;-38
2022/04/13 05:16:59;;;;;;;6.97;5.30;;;;;;;1.18;73.47;93753.78;5047256;28;20447;-38
2022/04/13 05:19:25;;;;;;;9.25;6.68;;;;;;;1.12;73.97;93752.25;5047271;28;20021;-38
2022/04/13 05:21:50;;;;;;;14.57;9.77;;;;;;;1.30;74.01;93755.38;5047190;28;20508;-39
2022/04/13 05:24:16;;;;;;;25.05;14.65;;;;;;;1.32;74.22;93738.59;5046860;28;20021;-39
2022/04/13 05:26:41;;;;;;;19.63;11.73;;;;;;;1.47;74.13;93758.25;5047166;28;20024;-38
2022/04/13 05:29:07;;;;;;;24.77;12.68;;;;;;;1.64;74.44;93771.97;5046819;28;20036;-38
2022/04/13 05:31:32;;;;;;;45.38;15.30;;;;;;;1.76;73.69;93759.94;5047115;28;20028;-38
2022/04/13 05:33:57;;;;;;;30.88;17.13;;;;;;;1.98;74.52;93760.84;5046635;28;20507;-39
2022/04/13 05:36:23;;;;;;;26.05;15.43;;;;;;;2.18;73.75;93759.97;5046801;28;20017;-39
2022/04/13 05:38:48;;;;;;;28.88;17.00;;;;;;;2.38;72.34;93759.09;5046654;28;20029;-38
2022/04/13 05:41:14;;;;;;;31.38;20.23;;;;;;;2.57;72.14;93766.38;5046741;28;20021;-39
2022/04/13 05:43:39;;;;;;;39.28;25.20;;;;;;;3.00;71.14;93762.28;5046627;28;20032;-39
2022/04/13 05:46:05;;;;;;;39.10;22.50;;;;;;;3.55;70.25;93744.50;5046896;28;20025;-39
2022/04/13 05:48:30;;;;;;;40.38;17.35;;;;;;;4.04;67.73;93754.66;5046884;28;20482;-39
2022/04/13 05:50:56;;;;;;;28.85;16.48;;;;;;;4.34;66.60;93754.84;5046823;28;20036;-39
2022/04/13 05:53:23;;;;;;;29.17;16.90;;;;;;;4.61;66.41;93754.75;5046484;28;20028;-39
2022/04/13 05:55:55;;;;;;;32.60;17.08;;;;;;;4.81;66.44;93747.47;5047727;28;20021;-38
2022/04/13 05:58:24;;;;;;;32.72;19.77;;;;;;;5.31;64.90;93758.88;5049970;28;20029;-39
2022/04/13 06:00:50;;;;;;;34.67;19.13;;;;;;;5.74;63.55;93754.34;5050094;28;20107;-39
2022/04/13 06:03:17;;;;;;;30.83;17.70;;;;;;;6.33;61.48;93753.63;5049596;28;20054;-39
2022/04/13 06:05:43;;;;;;;26.60;16.48;;;;;;;7.39;58.80;93758.59;5050142;28;20114;-39
2022/04/13 06:08:08;;;;;;;21.67;13.02;;;;;;;8.27;55.08;93757.22;5050005;28;20052;-37
2022/04/13 06:10:34;;;;;;;27.35;15.88;;;;;;;8.98;52.90;93756.44;5050190;28;20024;-39
2022/04/13 06:12:59;;;;;;;22.38;13.98;;;;;;;9.86;51.55;93751.03;5049520;27;20489;-40
2022/04/13 06:15:24;;;;;;;15.35;10.27;;;;;;;10.92;49.21;93754.63;5050071;28;20522;-39
2022/04/13 06:17:50;;;;;;;25.15;12.73;;;;;;;12.44;44.29;93757.38;5049941;28;20414;-39
2022/04/13 06:20:15;;;;;;;23.92;13.43;;;;;;;13.57;42.15;93748.88;5049885;28;20477;-38
2022/04/13 06:22:42;;;;;;;18.85;12.82;;;;;;;14.50;39.40;93758.91;5049880;28;20493;-39
2022/04/13 06:25:09;;;;;;;17.52;10.68;;;;;;;15.02;38.19;93752.91;5049454;28;20108;-39
2022/04/13 06:27:35;;;;;;;12.05;8.23;;;;;;;15.29;37.89;93747.44;5049603;28;20025;-39
2022/04/13 06:30:01;;;;;;;10.65;6.50;;;;;;;14.96;36.01;93754.44;5049743;28;20089;-38
2022/04/13 06:32:37;;;;;;;6.78;4.70;;;;;;;14.79;36.75;93749.56;5049631;28;20032;-38
2022/04/13 06:35:04;;;;;;;5.18;4.28;;;;;;;14.24;35.87;93752.59;5049501;28;20025;-39
2022/04/13 06:37:30;;;;;;;6.35;4.15;;;;;;;14.10;35.72;93745.06;5049356;28;20029;-39
2022/04/13 06:39:55;;;;;;;8.07;5.65;;;;;;;13.98;37.82;93741.25;5049703;28;20036;-38
2022/04/13 06:42:22;;;;;;;8.40;6.68;;;;;;;13.90;37.90;93741.31;5049604;28;20048;-38
2022/04/13 06:44:54;;;;;;;8.85;5.90;;;;;;;14.30;37.95;93746.81;5049509;28;20056;-39
2022/04/13 06:47:20;;;;;;;9.93;6.82;;;;;;;14.64;34.70;93741.38;5049444;28;20028;-38
2022/04/13 06:49:46;;;;;;;8.32;6.20;;;;;;;15.36;34.48;93738.25;5049413;28;20081;-38
2022/04/13 06:52:12;;;;;;;13.85;9.57;;;;;;;15.92;34.77;93739.28;5049207;28;20063;-38
2022/04/13 06:54:38;;;;;;;13.00;7.45;;;;;;;17.20;31.48;93742.16;5049253;28;20029;-39
2022/04/13 06:57:03;;;;;;;10.93;7.50;;;;;;;18.39;30.68;93739.56;5049031;28;20037;-39
2022/04/13 06:59:29;;;;;;;17.33;10.77;;;;;;;19.76;28.77;93737.66;5048889;28;20057;-39
2022/04/13 07:01:54;;;;;;;17.33;6.65;;;;;;;20.70;26.29;93731.72;5138597;27;20110;-37
2022/04/13 07:04:20;;;;;;;8.35;5.53;;;;;;;21.79;25.37;93731.22;5153968;27;20025;-37
2022/04/13 07:06:45;;;;;;;4.20;2.70;;;;;;;22.32;23.83;93740.56;5153989;27;20076;-37
2022/04/13 07:09:11;;;;;;;2.17;1.98;;;;;;;23.25;22.88;93737.84;5153796;27;20513;-37
2022/04/13 07:11:36;;;;;;;3.42;2.83;;;;;;;23.81;20.32;93739.25;5153870;27;20018;-38
2022/04/13 07:14:02;;;;;;;9.45;4.38;;;;;;;24.29;21.26;93729.63;5102677;27;20017;-38
2022/04/13 07:16:27;;;;;;;5.10;3.80;;;;;;;25.18;20.55;93740.88;5048730;28;20031;-38
2022/04/13 07:18:52;;;;;;;4.72;3.80;;;;;;;26.10;19.42;93737.75;5048661;28;20024;-38
2022/04/13 07:21:18;;;;;;;7.72;4.68;;;;;;;26.44;19.68;93746.94;5048945;28;20021;-37
2022/04/13 07:23:43;;;;;;;3.78;2.83;;;;;;;26.82;18.00;93746.34;5048947;28;20020;-39
2022/04/13 07:26:09;;;;;;;3.38;2.63;;;;;;;26.84;18.06;93740.75;5048525;28;20048;-39
2022/04/13 07:28:34;;;;;;;3.53;2.80;;;;;;;27.13;17.19;93733.31;5048889;28;20021;-37
2022/04/13 07:31:00;;;;;;;4.80;2.78;;;;;;;27.56;17.08;93736.34;5048445;28;20478;-39
2022/04/13 07:33:25;;;;;;;4.55;3.20;;;;;;;27.44;16.83;93738.75;5048417;28;20025;-39
2022/04/13 07:35:50;;;;;;;4.10;3.22;;;;;;;27.17;15.84;93741.97;5048719;28;20055;-40
2022/04/13 07:38:16;;;;;;;4.75;2.90;;;;;;;27.37;16.59;93739.91;5048693;28;20508;-40
2022/04/13 07:40:41;;;;;;;9.93;7.82;;;;;;;27.48;16.59;93741.72;5048344;28;20025;-40
2022/04/13 07:43:07;;;;;;;6.60;3.47;;;;;;;28.30;16.70;93736.06;5048588;28;20024;-37
2022/04/13 07:45:33;;;;;;;4.05;3.25;;;;;;;28.61;15.80;93743.47;5048567;28;20489;-38
2022/04/13 07:47:58;;;;;;;4.43;2.60;;;;;;;28.23;13.96;93734.41;5048159;28;20109;-38
2022/04/13 07:50:24;;;;;;;4.32;2.78;;;;;;;28.64;15.59;93738.56;5048527;28;20029;-37
2022/04/13 07:52:49;;;;;;;3.35;2.13;;;;;;;28.86;15.60;93739.25;5046857;28;20021;-38
2022/04/13 07:55:15;;;;;;;3.45;2.80;;;;;;;28.84;15.33;93736.38;5048051;28;20029;-37
2022/04/13 07:57:40;;;;;;;4.63;3.42;;;;;;;27.65;13.89;93740.91;5048374;28;20029;-37
2022/04/13 08:00:09;;;;;;;10.65;6.75;;;;;;;27.08;15.98;93748.72;5059261;27;20038;-37
2022/04/13 08:02:36;;;;;;;6.63;3.92;;;;;;;26.59;15.24;93743.28;5152628;27;20052;-37
2022/04/13 08:05:02;;;;;;;5.78;4.22;;;;;;;26.23;15.65;93748.19;5153085;27;20388;-37
2022/04/13 08:07:27;;;;;;;4.20;3.30;;;;;;;26.48;16.09;93742.16;5152672;27;20079;-37
2022/04/13 08:09:53;;;;;;;5.18;4.68;;;;;;;25.11;16.46;93750.44;5153033;27;20014;-36
2022/04/13 08:12:18;;;;;;;3.25;2.95;;;;;;;25.29;16.51;93756.16;5152913;27;20018;-39
2022/04/13 08:14:47;;;;;;;4.20;3.80;;;;;;;26.14;16.16;93749.28;5071314;27;20100;-39
2022/04/13 08:17:13;;;;;;;4.07;2.97;;;;;;;25.50;16.76;93750.78;5048161;28;20410;-40
2022/04/13 08:19:39;;;;;;;2.95;2.40;;;;;;;25.75;17.54;93749.72;5046987;28;20028;-36
2022/04/13 08:22:04;;;;;;;5.50;4.35;;;;;;;26.08;16.89;93746.91;5047889;28;20088;-36
2022/04/13 08:24:30;;;;;;;17.13;2.92;;;;;;;26.92;15.18;93751.69;5047652;28;20505;-37
2022/04/13 08:26:58;;;;;;;2.85;2.53;;;;;;;26.63;14.47;93752.66;5047934;28;20112;-39
2022/04/13 08:29:24;;;;;;;;;;;;;;;27.07;14.74;93748.00;5048274;28;20096;-37
2022/04/13 08:31:50;;;;;;;3.42;2.67;;;;;;;25.95;15.30;93755.50;5047543;28;19955;-37
2022/04/13 08:34:15;;;;;;;4.38;3.10;;;;;;;25.29;16.07;93751.25;5047887;28;20021;-37
2022/04/13 08:36:40;;;;;;;7.00;5.07;;;;;;;25.39;16.40;93754.53;5047494;28;20135;-39
2022/04/13 08:39:13;;;;;;;5.97;4.13;;;;;;;24.44;16.56;93751.53;5047468;28;20021;-37
2022/04/13 08:41:48;;;;;;;8.32;5.82;;;;;;;24.69;16.41;93754.09;5047814;28;20032;-37
2022/04/13 08:44:30;;;;;;;3.50;2.72;;;;;;;25.13;14.82;93741.31;5047610;28;20028;-36
2022/04/13 08:47:01;;;;;;;10.55;4.30;;;;;;;24.63;18.81;93745.34;5046357;28;20085;-39
2022/04/13 08:49:27;;;;;;;4.78;2.97;;;;;;;24.74;17.42;93739.59;5047472;28;20055;-39
2022/04/13 08:51:54;;;;;;;5.43;2.90;;;;;;;24.83;17.20;93743.50;5047301;28;20116;-39
2022/04/13 08:54:20;;;;;;;2.65;2.03;;;;;;;25.19;16.36;93750.06;5047464;28;20032;-40
2022/04/13 08:56:49;;;;;;;11.30;2.80;;;;;;;26.54;17.02;93739.56;5047558;28;20029;-40
2022/04/13 08:59:31;;;;;;;2.90;2.47;;;;;;;27.46;15.20;93738.81;5046337;28;20040;-40
2022/04/13 09:01:59;;;;;;;3.00;2.70;;;;;;;27.78;13.76;93743.53;5028133;28;20025;-40
2022/04/13 09:04:28;;;;;;;3.25;2.65;;;;;;;27.25;13.59;93725.25;5027744;28;20441;-40
2022/04/13 09:06:55;;;;;;;3.30;2.35;;;;;;;26.81;13.73;93727.88;5027547;28;20061;-39
2022/04/13 09:09:29;;;;;;;2.65;2.10;;;;;;;27.24;15.06;93723.81;5027504;28;20074;-39
2022/04/13 09:11:57;;;;;;;3.78;3.47;;;;;;;27.72;16.22;93729.09;5026408;28;20053;-40
2022/04/13 09:14:23;;;;;;;3.25;2.40;;;;;;;27.55;14.84;93724.25;5039333;27;20064;-37
2022/04/13 09:16:48;;;;;;;4.28;2.83;;;;;;;28.34;14.19;93724.09;5047285;28;20052;-37
2022/04/13 09:19:14;;;;;;;4.32;3.30;;;;;;;28.71;14.79;93718.22;5047282;28;20029;-38
2022/04/13 09:21:40;;;;;;;2.83;2.00;;;;;;;29.09;14.61;93727.16;5045769;28;20470;-37
2022/04/13 09:24:08;;;;;;;4.40;2.72;;;;;;;28.75;15.52;93721.19;5046094;28;20028;-38
2022/04/13 09:26:34;;;;;;;3.05;2.00;;;;;;;29.11;15.01;93715.84;5046906;28;20027;-38
2022/04/13 09:29:00;;;;;;;9.02;4.60;;;;;;;29.38;13.41;93714.50;5045927;28;20021;-37
2022/04/13 09:31:25;;;;;;;5.28;3.88;;;;;;;29.03;13.57;93710.66;5049050;28;20545;-38
2022/04/13 09:33:51;;;;;;;6.40;4.00;;;;;;;28.53;12.75;93711.94;5050555;28;20160;-37
2022/04/13 09:36:16;;;;;;;4.47;2.92;;;;;;;28.10;15.64;93718.38;5049150;28;20524;-37
2022/04/13 09:38:42;;;;;;;2.00;1.90;;;;;;;28.19;14.88;93711.56;5050520;28;20029;-37
2022/04/13 09:41:10;;;;;;;6.50;4.35;;;;;;;27.95;14.21;93699.38;5050227;28;20037;-37
2022/04/13 09:43:36;;;;;;;4.72;2.92;;;;;;;26.99;12.29;93708.00;5050268;27;20497;-39
2022/04/13 09:46:02;;;;;;;9.70;4.63;;;;;;;26.74;13.87;93700.72;5050389;28;20492;-40
2022/04/13 09:48:29;;;;;;;3.05;2.17;;;;;;;26.79;13.53;93701.59;5050062;28;20097;-39
2022/04/13 09:50:57;;;;;;;10.75;2.80;;;;;;;26.29;13.96;93708.84;5050140;28;20489;-39
2022/04/13 09:53:23;;;;;;;2.03;1.83;;;;;;;26.58;16.02;93708.56;5050293;28;20029;-37
2022/04/13 09:55:53;;;;;;;3.15;1.80;;;;;;;26.58;13.33;93700.06;5049960;28;20051;-39
2022/04/13 09:58:22;;;;;;;3.15;1.80;;;;;;;26.17;16.35;93708.34;5050048;28;20513;-40
2022/04/13 10:00:49;;;;;;;4.82;3.05;;;;;;;25.98;16.31;93698.38;5050152;28;20025;-37
2022/04/13 10:03:16;;;;;;;5.18;2.05;;;;;;;26.61;15.77;93704.44;5049789;28;20053;-40
2022/04/13 10:05:46;;;;;;;3.60;2.13;;;;;;;26.95;13.99;93702.91;5050137;28;20113;-40
2022/04/13 10:08:13;;;;;;;3.92;2.25;;;;;;;27.14;15.48;93695.81;5049829;28;20025;-39
2022/04/13 10:10:43;;;;;;;13.70;5.07;;;;;;;27.07;15.24;93693.41;5049865;28;20033;-40
2022/04/13 10:13:09;;;;;;;5.35;2.38;;;;;;;26.90;16.38;93698.47;5049367;27;20025;-37
2022/04/13 10:15:35;;;;;;;3.95;2.38;;;;;;;26.66;16.23;93694.00;5049738;28;20486;-40
2022/04/13 10:18:01;;;;;;;7.63;5.70;;;;;;;26.60;14.78;93700.13;5049614;28;20040;-39
2022/04/13 10:20:45;;;;;;;4.25;2.47;;;;;;;26.07;13.33;93696.59;5049975;28;20048;-37
2022/04/13 10:23:10;;;;;;;2.25;1.98;;;;;;;26.30;15.04;93696.13;5049643;28;20025;-37
2022/04/13 10:25:36;;;;;;;7.53;3.80;;;;;;;26.04;16.11;93678.78;5049662;28;20093;-39
2022/04/13 10:28:03;;;;;;;4.53;2.65;;;;;;;26.34;16.98;93687.78;5049764;28;20037;-40
2022/04/13 10:30:36;;;;;;;3.45;1.50;;;;;;;26.33;15.79;93689.19;5049528;28;20052;-40
2022/04/13 10:33:07;;;;;;;13.25;7.85;;;;;;;26.59;16.32;93690.19;5049296;28;20029;-40
2022/04/13 10:35:38;;;;;;;6.88;2.72;;;;;;;26.63;16.17;93689.63;5049425;28;20093;-39
2022/04/13 10:38:04;;;;;;;3.22;1.70;;;;;;;26.69;14.84;93684.91;5049442;28;20033;-39
2022/04/13 10:40:33;;;;;;;1.92;1.73;;;;;;;26.31;14.72;93689.81;5049631;28;20032;-39
2022/04/13 10:43:03;;;;;;;2.63;1.50;;;;;;;26.51;14.08;93689.88;5048832;28;20013;-39
2022/04/13 10:45:30;;;;;;;3.72;1.52;;;;;;;26.27;14.16;93689.66;5049600;28;20471;-39
2022/04/13 10:47:59;;;;;;;2.30;2.08;;;;;;;25.94;16.60;93683.31;5049545;28;20029;-39
2022/04/13 10:50:33;;;;;;;2.50;1.75;;;;;;;25.89;16.75;93673.22;5049275;28;20025;-39
2022/04/13 10:53:05;;;;;;;1.83;1.30;;;;;;;26.06;13.06;93669.66;5048267;28;20055;-39
2022/04/13 10:55:33;;;;;;;2.15;1.65;;;;;;;25.55;13.12;93669.69;5049460;28;20067;-39
2022/04/13 10:58:20;;;;;;;4.13;2.47;;;;;;;25.64;16.35;93671.50;5047928;28;20025;-40
2022/04/13 11:00:47;;;;;;;2.72;1.50;;;;;;;25.76;16.82;93663.50;5048142;28;20846;-39
2022/04/13 11:03:13;;;;;;;4.20;1.75;;;;;;;26.00;17.66;93667.31;5047722;28;20068;-39
2022/04/13 11:05:40;;;;;;;3.83;1.77;;;;;;;25.48;17.16;93670.81;5049044;28;20124;-39
2022/04/13 11:08:12;;;;;;;7.97;1.83;;;;;;;25.61;19.66;93660.72;5049156;28;20475;-39
2022/04/13 11:10:38;;;;;;;1.35;1.25;;;;;;;25.44;14.93;93660.06;5047872;28;20500;-40
2022/04/13 11:13:03;;;;;;;3.40;1.80;;;;;;;25.21;15.64;93640.66;5048321;27;20113;-39
2022/04/13 11:15:43;;;;;;;1.48;1.30;;;;;;;24.74;15.74;93660.50;5049049;28;20029;-40
2022/04/13 11:18:14;;;;;;;7.05;1.25;;;;;;;24.42;13.83;93661.09;5049079;28;20089;-39
2022/04/13 11:21:12;;;;;;;2.90;2.03;;;;;;;23.83;12.37;93652.69;5048752;28;20179;-39
2022/04/13 11:23:50;;;;;;;3.75;1.92;;;;;;;23.43;15.78;93652.78;5004640;28;20037;-39
2022/04/13 11:26:34;;;;;;;2.17;1.70;;;;;;;23.20;19.27;93640.38;5048722;28;20537;-39